Terminal Aerodrome Forecast
Issued by NWS

Home | Current Version | Previous Version | Graphics & Text | Print | Product List | Glossary On
Versions: 1 2 3 4 5 6 7 8 9 10 11 12 13 14 15 16
000
FTUS43 KICT 151132
TAFSLN
TAF
KSLN 151132Z 1512/1612 17008KT P6SM SCT200
     FM151400 16008KT P6SM SCT200
     FM151800 16013G21KT P6SM SCT045
     FM160000 15012KT P6SM VCTS SCT080CB
     FM160300 15008KT P6SM VCTS BKN080CB
     FM160600 16008KT P6SM BKN120=

USA.gov is the U.S. government's official web portal to all federal, state and local government web resources and services.